Time;durP1;ratioP1;P1;durP2;ratioP2;P2;SDS_P1;SDS_P2;PMS_P1;PMS_P2;Temp;Humidity;BMP_temperature;BMP_pressure;BME280_temperature;BME280_humidity;BME280_pressure;Samples;Min_cycle;Max_cycle;Signal;HPM_P1;HPM_P2
2021/03/07 00:00:28;;;;;;;17.20;7.00;;;1.90;92.40;;;;;;4978946;28;20219;-82
2021/03/07 00:02:54;;;;;;;13.75;7.90;;;1.80;92.60;;;;;;4979469;28;20211;-82
2021/03/07 00:05:21;;;;;;;14.65;8.25;;;1.70;92.70;;;;;;4979215;28;20232;-82
2021/03/07 00:07:48;;;;;;;14.07;8.40;;;1.90;92.80;;;;;;4984121;28;20228;-81
2021/03/07 00:10:17;;;;;;;12.48;7.82;;;1.70;92.80;;;;;;4979712;28;20228;-81
2021/03/07 00:12:44;;;;;;;9.70;7.13;;;2.00;92.90;;;;;;4979401;28;20209;-82
2021/03/07 00:15:12;;;;;;;12.02;7.50;;;1.90;92.90;;;;;;4980097;28;20308;-81
2021/03/07 00:17:39;;;;;;;13.27;7.68;;;1.90;92.90;;;;;;4981075;28;20205;-81
2021/03/07 00:20:08;;;;;;;11.85;7.03;;;1.80;93.00;;;;;;4986276;28;20211;-80
2021/03/07 00:22:35;;;;;;;10.80;6.80;;;1.70;93.00;;;;;;4985968;28;20224;-80
2021/03/07 00:25:02;;;;;;;12.88;6.75;;;1.70;93.10;;;;;;4988865;28;20205;-82
2021/03/07 00:27:29;;;;;;;12.15;6.75;;;1.80;93.20;;;;;;4993062;28;20233;-82
2021/03/07 00:29:55;;;;;;;11.43;6.30;;;1.60;93.30;;;;;;5016220;28;20201;-81
2021/03/07 00:32:22;;;;;;;11.52;7.63;;;1.70;93.50;;;;;;4995008;28;20229;-83
2021/03/07 00:34:48;;;;;;;12.32;8.23;;;1.70;93.70;;;;;;4995865;28;20201;-82
2021/03/07 00:37:14;;;;;;;12.43;7.43;;;1.70;93.70;;;;;;4996969;28;20205;-82
2021/03/07 00:39:41;;;;;;;11.77;7.55;;;1.70;93.80;;;;;;4987486;28;20213;-84
2021/03/07 00:42:07;;;;;;;15.55;8.57;;;1.60;94.00;;;;;;4983235;28;20241;-81
2021/03/07 00:44:35;;;;;;;12.63;7.00;;;1.50;94.00;;;;;;4990241;28;20300;-82
2021/03/07 00:47:01;;;;;;;12.50;6.80;;;1.40;94.00;;;;;;4982221;28;20244;-84
2021/03/07 00:49:32;;;;;;;8.25;5.75;;;1.60;94.20;;;;;;4983052;28;20210;-83
2021/03/07 00:51:59;;;;;;;11.57;6.38;;;1.60;94.30;;;;;;4989580;28;20240;-82
2021/03/07 00:54:26;;;;;;;10.73;6.90;;;1.50;94.30;;;;;;4994563;28;20260;-81
2021/03/07 00:56:53;;;;;;;11.50;7.15;;;1.70;94.60;;;;;;5013600;23;20778;-79
2021/03/07 00:59:20;;;;;;;13.98;7.43;;;1.40;94.70;;;;;;4975639;28;20220;-82
2021/03/07 01:01:47;;;;;;;11.93;7.10;;;1.50;94.90;;;;;;4976558;28;20684;-79
2021/03/07 01:04:13;;;;;;;11.30;7.07;;;1.40;94.80;;;;;;4983650;28;20197;-81
2021/03/07 01:06:40;;;;;;;11.32;6.45;;;1.60;94.80;;;;;;4978458;28;20237;-79
2021/03/07 01:09:07;;;;;;;13.68;6.65;;;1.60;94.80;;;;;;4980705;28;20204;-79
2021/03/07 01:11:34;;;;;;;12.30;7.20;;;1.50;95.00;;;;;;4995493;28;20238;-79
2021/03/07 01:14:00;;;;;;;11.02;6.40;;;1.50;95.20;;;;;;4981140;28;20245;-79
2021/03/07 01:16:27;;;;;;;11.63;7.32;;;1.50;95.40;;;;;;4993237;28;20932;-79
2021/03/07 01:18:54;;;;;;;10.85;7.10;;;1.50;95.40;;;;;;4992034;28;20209;-79
2021/03/07 01:21:20;;;;;;;12.40;7.45;;;1.40;95.30;;;;;;4974237;28;20293;-79
2021/03/07 01:23:46;;;;;;;9.43;6.00;;;1.50;95.30;;;;;;4974243;28;20224;-79
2021/03/07 01:26:13;;;;;;;11.32;6.35;;;1.40;95.40;;;;;;4989712;28;20221;-79
2021/03/07 01:28:39;;;;;;;11.15;6.90;;;1.40;95.70;;;;;;4974519;28;20323;-79
2021/03/07 01:31:05;;;;;;;10.50;6.55;;;1.50;95.80;;;;;;4991749;28;20215;-79
2021/03/07 01:33:32;;;;;;;10.30;6.82;;;1.40;95.90;;;;;;4993628;28;20200;-82
2021/03/07 01:36:02;;;;;;;11.90;6.43;;;1.40;96.20;;;;;;4995135;28;20260;-82
2021/03/07 01:38:29;;;;;;;9.93;7.15;;;1.30;96.20;;;;;;4992124;28;20258;-80
2021/03/07 01:40:56;;;;;;;15.95;7.25;;;1.30;96.30;;;;;;4976799;28;20213;-80
2021/03/07 01:43:23;;;;;;;13.40;6.20;;;1.20;96.50;;;;;;4979743;28;20205;-80
2021/03/07 01:45:50;;;;;;;12.32;7.07;;;1.10;96.60;;;;;;4980154;28;20315;-80
2021/03/07 01:48:17;;;;;;;11.98;7.00;;;1.30;96.80;;;;;;4978017;28;20228;-80
2021/03/07 01:50:46;;;;;;;11.75;6.90;;;1.30;96.80;;;;;;4977937;28;20216;-80
2021/03/07 01:53:15;;;;;;;11.43;7.43;;;1.30;96.50;;;;;;4977956;28;20208;-80
2021/03/07 01:55:43;;;;;;;10.85;6.47;;;1.30;96.60;;;;;;4982470;28;20248;-81
2021/03/07 01:58:14;;;;;;;11.23;7.40;;;1.10;96.50;;;;;;4976192;28;20272;-80
2021/03/07 02:00:40;;;;;;;11.43;6.57;;;1.30;96.70;;;;;;4972705;28;20212;-79
2021/03/07 02:03:07;;;;;;;13.05;6.25;;;1.20;96.70;;;;;;4980586;28;20205;-80
2021/03/07 02:05:34;;;;;;;9.98;6.20;;;1.20;96.70;;;;;;4995387;28;20224;-80
2021/03/07 02:08:00;;;;;;;9.30;6.03;;;1.30;97.00;;;;;;4992705;28;20233;-80
2021/03/07 02:10:31;;;;;;;8.43;5.85;;;1.20;96.70;;;;;;4976193;28;20281;-80
2021/03/07 02:13:03;;;;;;;12.25;6.35;;;1.10;96.80;;;;;;4989962;28;20686;-80
2021/03/07 02:15:31;;;;;;;11.02;6.53;;;1.00;97.00;;;;;;4974649;28;20854;-80
2021/03/07 02:17:58;;;;;;;10.32;6.10;;;0.90;97.20;;;;;;4975234;28;20241;-80
2021/03/07 02:20:27;;;;;;;9.25;5.85;;;0.80;97.50;;;;;;4977109;28;20266;-80
2021/03/07 02:22:59;;;;;;;9.07;5.57;;;0.70;97.60;;;;;;4975720;28;20700;-80
2021/03/07 02:25:28;;;;;;;9.43;6.05;;;0.90;97.60;;;;;;4977373;28;20232;-80
2021/03/07 02:27:55;;;;;;;11.25;6.53;;;0.80;97.70;;;;;;4978027;28;20229;-80
2021/03/07 02:30:23;;;;;;;9.93;6.40;;;0.60;97.80;;;;;;4995442;28;20270;-80
2021/03/07 02:32:56;;;;;;;10.85;7.28;;;0.60;98.00;;;;;;4986695;28;20581;-80
2021/03/07 02:35:25;;;;;;;10.00;5.88;;;0.70;98.20;;;;;;4995993;28;20204;-80
2021/03/07 02:37:55;;;;;;;11.80;6.35;;;0.90;98.00;;;;;;4990773;28;20197;-80
2021/03/07 02:40:27;;;;;;;9.18;5.15;;;0.80;98.20;;;;;;4994314;28;20291;-80
2021/03/07 02:42:56;;;;;;;11.10;6.10;;;0.90;97.70;;;;;;4984589;28;20291;-80
2021/03/07 02:45:23;;;;;;;12.43;5.25;;;0.80;97.60;;;;;;4975040;28;20220;-80
2021/03/07 02:47:52;;;;;;;10.07;5.50;;;0.80;97.60;;;;;;4974769;28;20624;-80
2021/03/07 02:50:22;;;;;;;8.77;5.50;;;0.80;97.50;;;;;;4974136;28;20252;-80
2021/03/07 02:52:52;;;;;;;10.38;6.10;;;0.90;97.50;;;;;;4980552;28;20236;-80
2021/03/07 02:55:20;;;;;;;9.40;6.05;;;1.10;97.60;;;;;;4992587;28;20204;-81
2021/03/07 02:57:48;;;;;;;12.10;6.97;;;0.80;97.70;;;;;;4986927;28;20205;-80
2021/03/07 03:00:17;;;;;;;9.82;6.15;;;0.70;98.00;;;;;;4993188;28;20204;-80
2021/03/07 03:02:45;;;;;;;9.63;6.15;;;0.70;98.20;;;;;;4981897;28;20770;-80
2021/03/07 03:05:13;;;;;;;9.80;6.50;;;0.70;98.30;;;;;;4982581;28;20231;-80
2021/03/07 03:07:40;;;;;;;9.48;6.20;;;0.80;98.10;;;;;;4974633;28;20316;-80
2021/03/07 03:10:08;;;;;;;10.30;6.25;;;0.80;98.10;;;;;;4974319;28;20587;-80
2021/03/07 03:12:37;;;;;;;9.13;5.88;;;0.80;97.90;;;;;;4978831;28;20204;-80
2021/03/07 03:15:08;;;;;;;10.95;6.50;;;1.10;97.90;;;;;;4992991;28;20240;-80
2021/03/07 03:17:35;;;;;;;12.02;6.47;;;0.70;98.00;;;;;;4974205;28;20739;-81
2021/03/07 03:20:04;;;;;;;10.82;6.50;;;0.70;98.30;;;;;;4973585;28;20363;-80
2021/03/07 03:22:32;;;;;;;10.00;6.20;;;0.90;98.10;;;;;;4977028;28;20339;-80
2021/03/07 03:24:59;;;;;;;12.45;7.20;;;0.90;97.70;;;;;;4994291;28;20242;-81
2021/03/07 03:27:25;;;;;;;11.85;6.50;;;0.90;97.80;;;;;;4979442;28;20819;-81
2021/03/07 03:29:52;;;;;;;11.25;6.47;;;1.00;98.00;;;;;;5004309;28;20216;-80
2021/03/07 03:32:19;;;;;;;9.98;6.60;;;1.00;97.90;;;;;;4995418;28;20208;-80
2021/03/07 03:34:45;;;;;;;9.98;6.10;;;1.00;97.70;;;;;;4994847;28;20596;-80
2021/03/07 03:37:11;;;;;;;9.95;6.45;;;0.80;98.00;;;;;;4985410;28;20276;-80
2021/03/07 03:39:39;;;;;;;11.25;6.00;;;0.60;98.20;;;;;;4991235;28;20228;-80
2021/03/07 03:42:06;;;;;;;11.52;5.78;;;0.70;98.70;;;;;;4986025;28;20229;-80
2021/03/07 03:44:35;;;;;;;12.38;6.80;;;0.80;98.90;;;;;;4976535;28;20342;-80
2021/03/07 03:47:03;;;;;;;8.25;5.80;;;0.70;99.00;;;;;;4981930;28;20225;-80
2021/03/07 03:49:34;;;;;;;9.75;6.13;;;0.70;99.00;;;;;;4973237;28;20680;-81
2021/03/07 03:52:04;;;;;;;12.50;5.82;;;0.90;99.20;;;;;;4973433;28;20209;-80
2021/03/07 03:54:35;;;;;;;10.82;6.50;;;0.70;99.20;;;;;;4974510;28;20292;-80
2021/03/07 03:57:03;;;;;;;12.43;8.88;;;0.70;99.20;;;;;;4976104;28;20316;-80
2021/03/07 03:59:31;;;;;;;13.98;6.65;;;0.60;99.30;;;;;;4974864;28;20330;-80
2021/03/07 04:01:59;;;;;;;9.30;5.82;;;0.50;99.30;;;;;;4974676;28;20274;-81
2021/03/07 04:04:27;;;;;;;12.10;6.47;;;0.60;99.50;;;;;;4974399;28;20263;-81
2021/03/07 04:06:55;;;;;;;8.77;5.78;;;0.70;99.50;;;;;;4976354;28;20225;-81
2021/03/07 04:09:22;;;;;;;9.00;5.97;;;0.50;99.40;;;;;;4974869;28;20340;-80
2021/03/07 04:11:49;;;;;;;10.60;6.75;;;0.60;99.50;;;;;;4987681;28;20201;-81
2021/03/07 04:14:17;;;;;;;14.85;6.80;;;0.80;99.60;;;;;;4991689;28;20521;-81
2021/03/07 04:16:45;;;;;;;13.27;6.53;;;0.60;99.60;;;;;;4975808;28;20284;-81
2021/03/07 04:19:11;;;;;;;13.23;6.93;;;0.50;99.60;;;;;;4972737;28;20292;-80
2021/03/07 04:21:39;;;;;;;10.43;6.15;;;0.70;99.70;;;;;;4983713;28;20219;-80
2021/03/07 04:24:08;;;;;;;10.43;6.55;;;0.60;99.40;;;;;;4984336;28;20206;-81
2021/03/07 04:26:35;;;;;;;13.82;6.80;;;0.50;99.60;;;;;;4979741;28;20257;-80
2021/03/07 04:29:02;;;;;;;13.02;6.35;;;0.80;99.70;;;;;;4980643;28;20228;-80
2021/03/07 04:31:29;;;;;;;10.90;6.70;;;0.70;99.60;;;;;;4994267;28;20213;-81
2021/03/07 04:33:55;;;;;;;8.88;5.68;;;0.60;99.80;;;;;;4992828;28;20200;-80
2021/03/07 04:36:22;;;;;;;12.68;5.63;;;0.80;99.70;;;;;;4976268;28;20230;-80
2021/03/07 04:38:48;;;;;;;10.52;6.35;;;0.60;99.60;;;;;;4979836;28;20223;-80
2021/03/07 04:41:16;;;;;;;10.05;6.35;;;0.60;99.70;;;;;;4993348;28;20247;-80
2021/03/07 04:43:48;;;;;;;10.82;6.22;;;0.50;99.90;;;;;;4993072;28;20201;-80
2021/03/07 04:46:15;;;;;;;10.30;6.85;;;0.40;99.90;;;;;;4998383;28;20229;-80
2021/03/07 04:48:41;;;;;;;10.00;6.07;;;0.40;99.90;;;;;;4988176;28;20244;-80
2021/03/07 04:51:08;;;;;;;12.35;7.10;;;0.50;99.90;;;;;;4996072;28;20241;-80
2021/03/07 04:53:34;;;;;;;10.63;5.75;;;0.40;99.90;;;;;;4979519;28;20680;-80
2021/03/07 04:56:00;;;;;;;12.68;6.22;;;0.50;99.90;;;;;;4994968;28;20239;-81
2021/03/07 04:58:28;;;;;;;10.90;6.63;;;0.60;99.90;;;;;;4992929;28;20292;-80
2021/03/07 05:00:54;;;;;;;9.30;6.72;;;0.70;99.90;;;;;;4987695;28;20300;-80
2021/03/07 05:03:20;;;;;;;11.20;5.68;;;0.50;99.90;;;;;;4988117;28;20344;-81
2021/03/07 05:05:48;;;;;;;11.73;7.05;;;0.40;99.90;;;;;;4979983;28;20712;-80
2021/03/07 05:08:14;;;;;;;9.93;6.45;;;0.70;99.90;;;;;;4982694;28;20275;-80
2021/03/07 05:10:41;;;;;;;10.18;6.22;;;0.60;99.90;;;;;;4990867;28;20256;-81
2021/03/07 05:13:07;;;;;;;9.48;6.15;;;0.70;99.90;;;;;;4980737;28;20263;-80
2021/03/07 05:15:34;;;;;;;13.73;7.38;;;0.70;99.90;;;;;;4990203;28;20303;-80
2021/03/07 05:18:01;;;;;;;10.95;6.60;;;0.60;99.90;;;;;;4980718;28;20297;-81
2021/03/07 05:20:27;;;;;;;9.60;6.78;;;0.50;99.90;;;;;;4978443;28;20740;-80
2021/03/07 05:22:53;;;;;;;10.05;6.95;;;0.60;99.90;;;;;;4984523;28;20260;-80
2021/03/07 05:25:20;;;;;;;11.07;6.13;;;0.70;99.90;;;;;;4977218;28;20219;-80
2021/03/07 05:27:46;;;;;;;10.10;6.60;;;0.70;99.90;;;;;;4982605;28;20233;-79
2021/03/07 05:30:13;;;;;;;14.35;9.07;;;0.60;99.90;;;;;;4979863;28;20206;-80
2021/03/07 05:32:41;;;;;;;10.50;5.90;;;0.60;99.90;;;;;;4980444;28;20209;-80
2021/03/07 05:35:08;;;;;;;10.02;6.47;;;0.60;99.90;;;;;;4981131;28;20216;-82
2021/03/07 05:37:35;;;;;;;11.00;6.72;;;0.50;99.90;;;;;;4976963;28;20283;-80
2021/03/07 05:40:01;;;;;;;9.82;6.00;;;0.30;99.90;;;;;;4990867;28;20683;-81
2021/03/07 05:42:28;;;;;;;10.98;6.47;;;0.40;99.90;;;;;;4996523;28;20706;-80
2021/03/07 05:44:54;;;;;;;9.57;6.03;;;0.40;99.90;;;;;;4978917;28;20224;-81
2021/03/07 05:47:20;;;;;;;11.27;7.28;;;0.30;99.90;;;;;;4977641;28;20319;-81
2021/03/07 05:49:48;;;;;;;11.75;6.30;;;0.40;99.90;;;;;;4979251;28;20223;-81
2021/03/07 05:52:14;;;;;;;11.15;6.38;;;0.40;99.90;;;;;;4977421;28;20205;-81
2021/03/07 05:54:41;;;;;;;11.73;7.20;;;0.40;99.90;;;;;;4988488;28;20217;-81
2021/03/07 05:57:08;;;;;;;9.60;6.40;;;0.50;99.90;;;;;;4976709;28;20237;-81
2021/03/07 05:59:36;;;;;;;10.95;6.07;;;0.30;99.90;;;;;;4986671;28;20587;-81
2021/03/07 06:02:02;;;;;;;12.73;7.25;;;0.50;99.90;;;;;;4989089;28;20205;-81
2021/03/07 06:04:29;;;;;;;9.60;6.30;;;0.40;99.90;;;;;;4987431;28;20213;-80
2021/03/07 06:06:56;;;;;;;10.50;6.88;;;0.30;99.90;;;;;;4978890;28;20325;-80
2021/03/07 06:09:26;;;;;;;10.95;6.65;;;0.50;99.90;;;;;;4975290;28;20367;-80
2021/03/07 06:11:54;;;;;;;14.32;6.88;;;0.50;99.90;;;;;;4990514;28;20306;-81
2021/03/07 06:14:24;;;;;;;12.35;6.80;;;0.60;99.90;;;;;;4979095;28;20246;-81
2021/03/07 06:17:01;;;;;;;14.00;7.90;;;0.50;99.90;;;;;;4989961;28;20225;-80
2021/03/07 06:19:28;;;;;;;10.80;6.70;;;0.70;99.90;;;;;;4991497;28;20578;-81
2021/03/07 06:21:55;;;;;;;11.40;6.95;;;0.50;99.90;;;;;;4987331;28;20221;-80
2021/03/07 06:24:36;;;;;;;14.38;7.75;;;0.60;99.90;;;;;;4993961;28;20287;-80
2021/03/07 06:27:07;;;;;;;11.40;7.70;;;0.60;99.90;;;;;;4987893;28;20315;-80
2021/03/07 06:29:33;;;;;;;14.85;8.60;;;0.50;99.90;;;;;;4989021;28;20205;-80
2021/03/07 06:32:00;;;;;;;13.45;7.57;;;0.50;99.90;;;;;;4985469;28;20236;-80
2021/03/07 06:34:26;;;;;;;15.75;7.63;;;0.50;99.90;;;;;;4976416;28;20208;-80
2021/03/07 06:37:04;;;;;;;12.27;7.15;;;0.30;99.90;;;;;;4972513;28;20232;-80
2021/03/07 06:39:30;;;;;;;12.38;7.85;;;0.50;99.90;;;;;;4983981;28;20211;-81
2021/03/07 06:42:04;;;;;;;10.27;6.75;;;0.30;99.90;;;;;;4992086;28;20208;-80
2021/03/07 06:44:31;;;;;;;15.82;7.35;;;0.40;99.90;;;;;;4987557;28;20205;-80
2021/03/07 06:47:08;;;;;;;11.13;7.47;;;0.50;99.90;;;;;;5007786;28;20324;-81
2021/03/07 06:49:34;;;;;;;19.65;8.20;;;0.50;99.90;;;;;;4985757;28;20211;-80
2021/03/07 06:52:16;;;;;;;17.02;7.88;;;0.30;99.90;;;;;;4976519;28;20233;-80
2021/03/07 06:54:44;;;;;;;10.85;7.05;;;0.70;99.90;;;;;;4984220;28;20699;-80
2021/03/07 06:57:11;;;;;;;11.82;7.82;;;0.50;99.90;;;;;;4988171;28;20229;-80
2021/03/07 06:59:38;;;;;;;12.65;7.63;;;0.60;99.90;;;;;;4975402;28;20209;-80
2021/03/07 07:02:11;;;;;;;11.35;6.72;;;1.10;99.90;;;;;;4976810;28;20220;-80
2021/03/07 07:04:42;;;;;;;11.43;7.50;;;1.00;99.90;;;;;;4990169;28;20215;-80
2021/03/07 07:07:11;;;;;;;11.88;8.20;;;1.00;99.90;;;;;;4990558;28;20279;-80
2021/03/07 07:09:39;;;;;;;15.85;8.15;;;1.00;99.90;;;;;;4993470;28;20209;-80
2021/03/07 07:12:08;;;;;;;16.83;8.43;;;0.90;99.90;;;;;;4982437;28;20209;-80
2021/03/07 07:14:40;;;;;;;14.02;7.85;;;0.80;99.90;;;;;;4997166;28;20675;-80
2021/03/07 07:17:09;;;;;;;14.38;8.15;;;0.80;99.90;;;;;;4993436;28;20233;-80
2021/03/07 07:19:37;;;;;;;9.27;7.03;;;1.00;99.90;;;;;;4993189;28;20807;-80
2021/03/07 07:22:03;;;;;;;10.50;7.57;;;0.90;99.90;;;;;;4991274;28;20205;-81
2021/03/07 07:24:30;;;;;;;13.10;7.70;;;1.20;99.90;;;;;;5008406;28;20197;-81
2021/03/07 07:26:58;;;;;;;13.55;7.55;;;1.40;99.90;;;;;;4988491;28;20316;-80
2021/03/07 07:29:25;;;;;;;11.65;8.10;;;1.30;99.90;;;;;;4974633;28;20692;-80
2021/03/07 07:31:56;;;;;;;16.17;9.43;;;1.40;99.90;;;;;;4986646;28;20279;-81
2021/03/07 07:34:28;;;;;;;15.07;7.97;;;1.60;99.90;;;;;;4992808;28;20196;-81
2021/03/07 07:36:58;;;;;;;11.65;7.60;;;1.60;99.90;;;;;;4992551;28;20228;-81
2021/03/07 07:39:28;;;;;;;10.80;8.27;;;1.60;99.90;;;;;;4991459;28;20240;-81
2021/03/07 07:41:55;;;;;;;11.35;7.78;;;2.00;99.90;;;;;;4985542;28;20233;-82
2021/03/07 07:44:32;;;;;;;11.98;7.45;;;2.00;99.90;;;;;;4974104;28;20209;-82
2021/03/07 07:47:01;;;;;;;11.82;8.20;;;1.80;99.90;;;;;;4978113;28;20567;-82
2021/03/07 07:49:42;;;;;;;13.13;8.60;;;2.20;99.80;;;;;;4977091;28;20224;-81
2021/03/07 07:52:36;;;;;;;13.90;7.90;;;2.00;99.30;;;;;;4976732;28;20269;-82
2021/03/07 07:55:06;;;;;;;13.50;7.72;;;2.20;99.00;;;;;;4972981;28;20293;-79
2021/03/07 07:57:47;;;;;;;14.15;9.18;;;2.20;99.00;;;;;;4972419;28;20303;-79
2021/03/07 08:00:21;;;;;;;13.43;7.72;;;2.40;99.00;;;;;;4985933;28;20207;-81
2021/03/07 08:02:55;;;;;;;11.00;8.25;;;2.50;98.90;;;;;;4992954;28;20222;-80
2021/03/07 08:05:43;;;;;;;15.15;8.95;;;2.60;98.60;;;;;;4977424;28;20256;-80
2021/03/07 08:08:15;;;;;;;15.07;8.20;;;2.80;98.30;;;;;;4980158;28;20232;-80
2021/03/07 08:10:44;;;;;;;11.32;7.15;;;2.70;98.10;;;;;;4989445;28;20292;-80
2021/03/07 08:13:11;;;;;;;13.00;7.80;;;2.70;98.00;;;;;;4997764;28;20216;-80
2021/03/07 08:15:46;;;;;;;12.18;8.20;;;3.00;98.30;;;;;;4998411;28;20228;-80
2021/03/07 08:18:16;;;;;;;14.90;8.48;;;3.10;97.80;;;;;;4985604;28;20197;-80
2021/03/07 08:21:00;;;;;;;12.05;7.82;;;3.20;98.00;;;;;;4998151;28;20267;-80
2021/03/07 08:23:27;;;;;;;13.80;9.30;;;3.30;98.30;;;;;;4996531;28;20227;-80
2021/03/07 08:26:03;;;;;;;18.05;9.57;;;3.30;98.00;;;;;;4998321;28;20565;-80
2021/03/07 08:28:42;;;;;;;12.57;8.00;;;3.50;97.40;;;;;;4984122;28;20286;-80
2021/03/07 08:31:29;;;;;;;14.77;9.10;;;3.50;96.70;;;;;;4983019;28;20630;-80
2021/03/07 08:34:15;;;;;;;11.88;8.52;;;3.70;96.50;;;;;;4978626;28;20758;-81
2021/03/07 08:36:59;;;;;;;13.52;9.63;;;3.50;96.40;;;;;;4960623;28;20225;-80
2021/03/07 08:39:27;;;;;;;14.48;9.02;;;3.40;96.60;;;;;;4992350;28;20201;-80
2021/03/07 08:42:01;;;;;;;12.50;8.82;;;3.40;96.60;;;;;;4982811;28;20205;-81
2021/03/07 08:44:28;;;;;;;15.27;8.25;;;3.60;96.40;;;;;;4980279;28;20209;-81
2021/03/07 08:46:56;;;;;;;14.13;9.55;;;3.90;96.20;;;;;;4992241;28;20221;-81
2021/03/07 08:49:25;;;;;;;11.60;8.00;;;3.80;96.10;;;;;;4977487;28;20320;-80
2021/03/07 08:51:57;;;;;;;11.80;8.02;;;4.10;96.00;;;;;;4975864;28;20295;-81
2021/03/07 08:54:25;;;;;;;17.55;8.82;;;4.10;95.70;;;;;;4978114;28;20228;-81
2021/03/07 08:56:52;;;;;;;13.30;8.32;;;4.20;95.60;;;;;;4978155;28;20233;-80
2021/03/07 08:59:25;;;;;;;16.35;8.98;;;4.00;95.50;;;;;;4976626;28;20205;-79
2021/03/07 09:01:52;;;;;;;13.65;8.43;;;3.80;95.50;;;;;;4995301;28;20205;-80
2021/03/07 09:04:19;;;;;;;13.77;8.93;;;3.90;95.60;;;;;;4989244;28;20220;-80
2021/03/07 09:06:47;;;;;;;16.65;8.73;;;4.00;95.60;;;;;;4980068;28;20268;-81
2021/03/07 09:09:15;;;;;;;14.52;8.82;;;4.10;95.40;;;;;;4978205;28;20217;-80
2021/03/07 09:11:51;;;;;;;14.65;9.50;;;4.00;95.40;;;;;;4977317;28;20225;-81
2021/03/07 09:14:19;;;;;;;12.45;8.35;;;4.20;95.80;;;;;;4988761;28;20271;-81
2021/03/07 09:16:47;;;;;;;13.38;9.23;;;4.30;95.60;;;;;;4981812;28;20372;-81
2021/03/07 09:19:22;;;;;;;13.60;8.73;;;4.50;95.30;;;;;;4977729;28;20209;-81
2021/03/07 09:22:16;;;;;;;11.55;7.30;;;4.60;95.10;;;;;;4978158;28;20236;-81
2021/03/07 09:24:54;;;;;;;15.13;12.75;;;4.60;94.60;;;;;;4988108;28;20644;-81
2021/03/07 09:27:22;;;;;;;14.55;8.52;;;4.80;94.60;;;;;;4960949;29;20317;-81
2021/03/07 09:30:00;;;;;;;13.65;8.80;;;4.90;94.60;;;;;;4970256;28;20573;-80
2021/03/07 09:32:28;;;;;;;14.35;8.20;;;5.20;94.60;;;;;;5005085;28;20224;-80
2021/03/07 09:34:56;;;;;;;12.00;9.02;;;5.20;94.10;;;;;;4990995;28;20210;-80
2021/03/07 09:37:24;;;;;;;12.85;8.75;;;5.40;94.10;;;;;;4998250;28;20228;-81
2021/03/07 09:39:50;;;;;;;11.70;8.27;;;5.20;93.90;;;;;;5000504;28;20578;-81
2021/03/07 09:42:17;;;;;;;16.10;9.18;;;5.50;93.80;;;;;;4999415;28;20208;-80
2021/03/07 09:44:45;;;;;;;14.55;9.00;;;5.60;93.60;;;;;;4987117;28;20205;-81
2021/03/07 09:47:12;;;;;;;13.65;9.18;;;5.90;93.40;;;;;;4987633;28;20248;-80
2021/03/07 09:49:40;;;;;;;13.15;9.00;;;6.20;92.90;;;;;;5008772;28;20217;-80
2021/03/07 09:52:08;;;;;;;11.70;8.15;;;6.10;92.80;;;;;;5001918;28;20667;-80
2021/03/07 09:54:35;;;;;;;15.45;9.93;;;6.10;92.90;;;;;;4981441;28;20241;-81
2021/03/07 09:57:01;;;;;;;13.57;8.40;;;6.50;93.00;;;;;;4991996;28;20272;-81
2021/03/07 09:59:32;;;;;;;11.00;8.05;;;6.60;92.80;;;;;;4982234;28;20213;-81
2021/03/07 10:02:00;;;;;;;15.00;10.02;;;6.60;92.60;;;;;;4983109;28;20633;-79
2021/03/07 10:04:32;;;;;;;15.65;10.77;;;6.70;92.60;;;;;;4995870;28;20213;-82
2021/03/07 10:06:59;;;;;;;11.95;9.30;;;6.60;92.50;;;;;;5000832;28;20302;-79
2021/03/07 10:09:26;;;;;;;14.07;9.98;;;6.70;92.40;;;;;;4996735;28;20228;-82
2021/03/07 10:12:01;;;;;;;14.38;8.75;;;6.90;92.40;;;;;;4992362;28;20236;-80
2021/03/07 10:14:30;;;;;;;8.02;5.03;;;7.10;92.20;;;;;;4985351;28;20240;-80
2021/03/07 10:16:58;;;;;;;12.52;8.02;;;6.90;91.40;;;;;;4992363;28;20228;-83
2021/03/07 10:19:35;;;;;;;12.40;8.75;;;6.80;91.30;;;;;;4991386;28;20218;-77
2021/03/07 10:22:04;;;;;;;11.80;8.80;;;6.80;91.50;;;;;;4957290;29;20205;-82
2021/03/07 10:24:32;;;;;;;13.45;9.68;;;6.90;91.60;;;;;;4978015;28;20205;-82
2021/03/07 10:27:03;;;;;;;14.52;9.25;;;6.60;91.50;;;;;;4983672;28;20617;-82
2021/03/07 10:29:31;;;;;;;13.30;9.35;;;6.70;91.60;;;;;;4997254;28;20251;-81
2021/03/07 10:32:05;;;;;;;14.00;9.20;;;6.90;91.50;;;;;;5005509;28;20208;-81
2021/03/07 10:34:37;;;;;;;14.60;7.43;;;7.10;91.30;;;;;;4989126;28;20211;-81
2021/03/07 10:37:04;;;;;;;12.73;8.73;;;7.10;90.90;;;;;;4975835;28;20259;-77
2021/03/07 10:39:32;;;;;;;15.77;10.90;;;7.30;90.90;;;;;;4977954;28;20282;-80
2021/03/07 10:42:10;;;;;;;12.38;8.93;;;7.20;90.70;;;;;;4975296;28;20227;-80
2021/03/07 10:44:40;;;;;;;16.48;10.23;;;7.30;90.90;;;;;;4981681;28;20217;-80
2021/03/07 10:47:20;;;;;;;15.73;9.95;;;7.60;90.70;;;;;;4977136;28;20224;-79
2021/03/07 10:49:48;;;;;;;13.90;9.13;;;7.50;90.60;;;;;;4954989;28;20217;-80
2021/03/07 10:52:14;;;;;;;13.30;8.85;;;7.60;90.70;;;;;;4961468;28;20460;-80
2021/03/07 10:54:42;;;;;;;14.10;9.10;;;7.70;90.50;;;;;;4987851;28;20303;-80
2021/03/07 10:57:10;;;;;;;11.07;7.20;;;7.90;90.20;;;;;;4993955;28;20236;-80
2021/03/07 10:59:37;;;;;;;13.77;8.35;;;8.00;89.90;;;;;;4973990;28;20245;-80
2021/03/07 11:02:06;;;;;;;12.07;8.73;;;7.60;90.00;;;;;;4974116;28;20355;-79
2021/03/07 11:04:33;;;;;;;15.57;10.05;;;7.70;90.20;;;;;;4973327;28;20345;-80
2021/03/07 11:06:59;;;;;;;16.73;10.32;;;7.60;90.10;;;;;;4986396;28;20343;-78
2021/03/07 11:09:26;;;;;;;15.13;10.60;;;7.70;90.40;;;;;;4989080;28;20225;-80
2021/03/07 11:11:53;;;;;;;14.27;10.23;;;7.50;90.40;;;;;;4971276;28;20216;-79
2021/03/07 11:14:20;;;;;;;20.15;9.77;;;7.60;90.40;;;;;;4995999;28;20228;-78
2021/03/07 11:16:46;;;;;;;14.63;9.52;;;7.50;90.80;;;;;;4995635;28;20267;-81
2021/03/07 11:19:13;;;;;;;13.50;9.20;;;7.80;90.30;;;;;;4983472;28;20212;-81
2021/03/07 11:21:39;;;;;;;11.60;8.65;;;7.80;90.20;;;;;;4984913;28;20209;-80
2021/03/07 11:24:07;;;;;;;14.10;10.07;;;7.90;90.20;;;;;;4983310;28;20539;-81
2021/03/07 11:26:33;;;;;;;14.68;10.77;;;8.00;90.30;;;;;;4991326;28;20855;-79
2021/03/07 11:29:01;;;;;;;16.40;9.73;;;8.30;90.00;;;;;;4992112;28;20248;-80
2021/03/07 11:31:27;;;;;;;15.10;8.00;;;8.40;89.50;;;;;;4992908;28;20581;-80
2021/03/07 11:33:53;;;;;;;14.80;10.13;;;8.30;88.80;;;;;;4993936;28;20467;-79
2021/03/07 11:36:20;;;;;;;14.07;11.05;;;8.20;89.70;;;;;;4991750;28;20363;-79
2021/03/07 11:38:46;;;;;;;13.70;9.50;;;8.20;90.00;;;;;;4990256;28;20232;-78
2021/03/07 11:41:12;;;;;;;12.90;9.57;;;8.30;89.40;;;;;;4983810;28;20201;-78
2021/03/07 11:43:39;;;;;;;14.60;9.93;;;8.50;89.00;;;;;;4984887;28;20544;-81
2021/03/07 11:46:06;;;;;;;15.95;11.77;;;8.70;88.20;;;;;;4992271;28;20562;-78
2021/03/07 11:48:32;;;;;;;14.60;10.23;;;8.50;87.70;;;;;;4988457;28;20327;-76
2021/03/07 11:50:59;;;;;;;13.70;9.25;;;8.50;88.00;;;;;;4989709;28;20205;-77
2021/03/07 11:53:25;;;;;;;14.52;9.57;;;8.60;88.30;;;;;;4979796;28;20216;-76
2021/03/07 11:55:52;;;;;;;14.20;9.13;;;8.60;88.50;;;;;;4975669;28;20229;-77
2021/03/07 11:58:18;;;;;;;13.03;9.97;;;8.60;87.80;;;;;;4980215;28;20260;-77
2021/03/07 12:00:44;;;;;;;12.45;9.10;;;8.60;86.50;;;;;;4974115;28;20544;-75
2021/03/07 12:03:12;;;;;;;13.70;9.00;;;8.40;86.00;;;;;;4981829;28;20211;-75
2021/03/07 12:05:38;;;;;;;14.18;9.75;;;8.50;86.60;;;;;;4980549;28;20233;-77
2021/03/07 12:08:05;;;;;;;12.20;8.90;;;8.70;86.60;;;;;;4974958;28;20636;-76
2021/03/07 12:10:31;;;;;;;14.32;10.38;;;8.70;86.50;;;;;;4977627;28;20252;-76
2021/03/07 12:12:58;;;;;;;10.47;7.40;;;8.80;85.40;;;;;;4978613;28;20248;-82
2021/03/07 12:15:24;;;;;;;14.40;9.17;;;8.70;85.20;;;;;;4996856;28;20531;-78
2021/03/07 12:17:50;;;;;;;13.00;7.50;;;8.80;85.50;;;;;;4994073;28;20446;-81
2021/03/07 12:20:18;;;;;;;11.27;7.85;;;8.80;84.30;;;;;;5000891;28;20456;-80
2021/03/07 12:22:46;;;;;;;15.55;9.65;;;8.50;83.80;;;;;;4987229;28;20249;-76
2021/03/07 12:25:20;;;;;;;9.60;6.85;;;8.50;85.00;;;;;;4994264;28;20205;-76
2021/03/07 12:27:47;;;;;;;11.83;7.87;;;8.50;84.30;;;;;;4982990;28;20216;-75
2021/03/07 12:30:14;;;;;;;14.35;9.80;;;8.60;84.60;;;;;;4978992;28;20478;-76
2021/03/07 12:32:41;;;;;;;11.68;7.63;;;8.40;84.50;;;;;;4993256;28;20240;-76
2021/03/07 12:35:08;;;;;;;12.90;9.20;;;8.60;84.40;;;;;;4982739;28;20245;-76
2021/03/07 12:37:36;;;;;;;13.80;9.02;;;8.60;84.60;;;;;;4977168;28;20982;-77
2021/03/07 12:40:03;;;;;;;14.17;10.13;;;8.50;84.20;;;;;;4974826;28;20210;-75
2021/03/07 12:42:30;;;;;;;11.18;7.57;;;8.60;84.60;;;;;;4984772;28;20506;-75
2021/03/07 12:44:57;;;;;;;15.10;8.93;;;8.60;83.90;;;;;;4992141;28;20299;-75
2021/03/07 12:47:24;;;;;;;11.52;6.07;;;8.70;84.90;;;;;;4987967;28;20229;-76
2021/03/07 12:49:50;;;;;;;12.90;7.75;;;8.90;83.70;;;;;;4996226;28;20224;-80
2021/03/07 12:52:17;;;;;;;12.40;8.57;;;8.70;83.30;;;;;;4987533;28;20391;-80
2021/03/07 12:54:44;;;;;;;12.30;7.80;;;8.70;82.70;;;;;;4981186;28;20495;-79